createdAt,value
2023-02-27T00:00:28.641Z,99214.34
2023-02-27T00:03:13.516Z,99214.03
2023-02-27T00:05:58.532Z,99226.19
2023-02-27T00:08:43.782Z,99217.34
2023-02-27T00:11:29.049Z,99224.94
2023-02-27T00:14:14.057Z,99223.50
2023-02-27T00:16:59.002Z,99227.78
2023-02-27T00:19:44.288Z,99234.56
2023-02-27T00:22:28.942Z,99233.31
2023-02-27T00:25:14.561Z,99228.09
2023-02-27T00:27:59.843Z,99224.44
2023-02-27T00:30:45.089Z,99230.28
2023-02-27T00:33:30.306Z,99231.72
2023-02-27T00:36:15.108Z,99227.94
2023-02-27T00:39:00.483Z,99238.69
2023-02-27T00:41:45.151Z,99241.50
2023-02-27T00:44:30.506Z,99235.53
2023-02-27T00:47:15.058Z,99230.94
2023-02-27T00:50:00.557Z,99232.97
2023-02-27T00:52:45.190Z,99246.41
2023-02-27T00:55:30.208Z,99235.50
2023-02-27T00:58:16.614Z,99228.53
2023-02-27T01:01:01.745Z,99230.13
2023-02-27T01:03:46.780Z,99238.81
2023-02-27T01:06:31.629Z,99242.91
2023-02-27T01:09:16.314Z,99246.53
2023-02-27T01:12:01.529Z,99252.41
2023-02-27T01:14:47.411Z,99241.97
2023-02-27T01:17:35.804Z,99248.63
2023-02-27T01:20:22.408Z,99259.50
2023-02-27T01:23:07.097Z,99263.00
2023-02-27T01:25:51.920Z,99266.00
2023-02-27T01:28:36.534Z,99266.97
2023-02-27T01:31:23.286Z,99260.47
2023-02-27T01:34:08.193Z,99263.00
2023-02-27T01:36:53.057Z,99263.59
2023-02-27T01:39:37.876Z,99268.81
2023-02-27T01:42:27.586Z,99272.91
2023-02-27T01:45:12.557Z,99277.34
2023-02-27T01:48:06.028Z,99276.72
2023-02-27T01:50:56.223Z,99273.53
2023-02-27T01:53:43.845Z,99274.78
2023-02-27T01:56:31.443Z,99273.63
2023-02-27T01:59:17.719Z,99282.31
2023-02-27T02:02:07.734Z,99283.28
2023-02-27T02:04:54.599Z,99283.41
2023-02-27T02:07:41.388Z,99280.59
2023-02-27T02:10:27.069Z,99297.38
2023-02-27T02:13:12.205Z,99293.06
2023-02-27T02:16:06.343Z,99295.75
2023-02-27T02:18:52.233Z,99299.72
2023-02-27T02:21:37.180Z,99306.53
2023-02-27T02:24:22.106Z,99304.94
2023-02-27T02:27:25.221Z,99309.22
2023-02-27T02:30:35.028Z,99317.59
2023-02-27T02:33:29.294Z,99314.09
2023-02-27T02:36:20.718Z,99309.84
2023-02-27T02:39:14.560Z,99311.44
2023-02-27T02:42:24.278Z,99315.41
2023-02-27T02:45:26.534Z,99314.75
2023-02-27T02:48:26.037Z,99322.50
2023-02-27T02:51:10.568Z,99321.56
2023-02-27T02:54:04.329Z,99328.66
2023-02-27T02:56:56.265Z,99321.34
2023-02-27T03:03:56.527Z,99338.13
2023-02-27T03:06:52.465Z,99344.75
2023-02-27T03:09:47.677Z,99348.88
2023-02-27T03:12:34.313Z,99352.19
2023-02-27T03:15:27.858Z,99362.03
2023-02-27T03:18:32.264Z,99360.94
2023-02-27T03:21:31.553Z,99360.13
2023-02-27T03:24:25.181Z,99368.06
2023-02-27T03:27:11.210Z,99364.91
2023-02-27T03:30:15.304Z,99366.16
2023-02-27T03:33:22.518Z,99379.47
2023-02-27T03:36:36.764Z,99369.66
2023-02-27T03:39:28.292Z,99376.28
2023-02-27T03:42:31.891Z,99382.31
2023-02-27T03:45:40.737Z,99384.69
2023-02-27T03:48:25.858Z,99381.22
2023-02-27T03:51:11.744Z,99379.47
2023-02-27T03:54:17.391Z,99383.88
2023-02-27T03:57:05.198Z,99387.22
2023-02-27T03:59:51.059Z,99387.38
2023-02-27T04:02:36.323Z,99387.66
2023-02-27T04:05:21.758Z,99394.16
2023-02-27T04:08:34.204Z,99385.13
2023-02-27T04:11:40.262Z,99393.53
2023-02-27T04:14:30.897Z,99401.09
2023-02-27T04:17:26.618Z,99406.16
2023-02-27T04:20:34.792Z,99404.72
2023-02-27T04:23:34.378Z,99404.72
2023-02-27T04:26:39.040Z,99408.69
2023-02-27T04:29:45.433Z,99412.16
2023-02-27T04:32:48.057Z,99418.16
2023-02-27T04:35:43.330Z,99417.84
2023-02-27T04:38:50.967Z,99425.44
2023-02-27T04:41:46.491Z,99430.84
2023-02-27T04:44:34.557Z,99435.63
2023-02-27T04:47:21.095Z,99429.91
2023-02-27T04:50:18.974Z,99440.03
2023-02-27T04:53:08.388Z,99446.19
2023-02-27T04:55:59.719Z,99442.22
2023-02-27T04:58:53.011Z,99448.22
2023-02-27T05:01:42.773Z,99454.88
2023-02-27T05:04:32.909Z,99447.41
2023-02-27T05:07:21.784Z,99445.34
2023-02-27T05:10:31.825Z,99453.84
2023-02-27T05:13:31.623Z,99457.97
2023-02-27T05:16:29.234Z,99463.47
2023-02-27T05:19:14.576Z,99462.53
2023-02-27T05:22:20.278Z,99476.31
2023-02-27T05:25:14.010Z,99483.63
2023-02-27T05:28:02.352Z,99489.47
2023-02-27T05:31:15.241Z,99495.81
2023-02-27T05:34:21.957Z,99497.25
2023-02-27T05:37:19.934Z,99501.41
2023-02-27T05:40:09.505Z,99502.78
2023-02-27T05:43:03.971Z,99517.03
2023-02-27T05:45:51.936Z,99521.28
2023-02-27T05:48:41.748Z,99519.09
2023-02-27T05:51:31.410Z,99525.31
2023-02-27T05:54:29.318Z,99521.69
2023-02-27T05:57:22.262Z,99528.19
2023-02-27T06:00:14.799Z,99534.88
2023-02-27T06:03:00.394Z,99528.66
2023-02-27T06:05:46.645Z,99533.41
2023-02-27T06:08:33.364Z,99536.88
2023-02-27T06:11:28.930Z,99535.94
2023-02-27T06:14:14.302Z,99531.38
2023-02-27T06:16:59.145Z,99540.19
2023-02-27T06:19:46.799Z,99533.50
2023-02-27T06:26:35.870Z,99532.16
2023-02-27T06:29:21.502Z,99544.25
2023-02-27T06:32:15.506Z,99534.47
2023-02-27T06:35:00.270Z,99547.84
2023-02-27T06:37:52.538Z,99544.66
2023-02-27T06:40:37.782Z,99546.09
2023-02-27T06:43:22.673Z,99549.72
2023-02-27T06:46:07.799Z,99551.47
2023-02-27T06:48:53.089Z,99554.91
2023-02-27T06:51:38.760Z,99550.19
2023-02-27T06:54:23.853Z,99556.56
2023-02-27T06:57:08.902Z,99561.19
2023-02-27T06:59:53.744Z,99554.91
2023-02-27T07:02:38.882Z,99564.13
2023-02-27T07:05:24.149Z,99562.56
2023-02-27T07:08:22.868Z,99568.03
2023-02-27T07:11:09.588Z,99566.59
2023-02-27T07:14:13.214Z,99568.03
2023-02-27T07:17:03.929Z,99571.38
2023-02-27T07:19:48.992Z,99569.09
2023-02-27T07:22:34.165Z,99565.94
2023-02-27T07:25:22.334Z,99580.75
2023-02-27T07:28:16.015Z,99578.41
2023-02-27T07:31:09.172Z,99568.44
2023-02-27T07:33:58.422Z,99576.44
2023-02-27T07:36:54.006Z,99564.44
2023-02-27T07:39:57.773Z,99583.22
2023-02-27T07:43:49.510Z,99596.88
2023-02-27T07:46:39.079Z,99596.56
2023-02-27T07:49:48.115Z,99575.75
2023-02-27T07:52:36.427Z,99605.09
2023-02-27T07:55:22.578Z,99597.97
2023-02-27T07:58:08.445Z,99595.88
2023-02-27T08:01:30.758Z,99608.06
2023-02-27T08:05:30.688Z,99608.66
2023-02-27T08:09:05.375Z,99579.31
2023-02-27T08:12:05.488Z,99568.19
2023-02-27T08:15:00.871Z,99577.88
2023-02-27T08:17:48.613Z,99604.84
2023-02-27T08:20:38.581Z,99611.00
2023-02-27T08:23:39.353Z,99609.88
2023-02-27T08:26:42.900Z,99601.63
2023-02-27T08:29:30.643Z,99615.16
2023-02-27T08:36:07.384Z,99615.97
2023-02-27T08:38:52.725Z,99624.28
2023-02-27T08:41:37.679Z,99634.31
2023-02-27T08:44:25.087Z,99624.63
2023-02-27T08:47:09.898Z,99633.13
2023-02-27T08:49:58.723Z,99637.84
2023-02-27T08:53:11.016Z,99628.00
2023-02-27T08:56:02.253Z,99620.38
2023-02-27T08:58:53.363Z,99624.09
2023-02-27T09:09:50.034Z,99629.31
2023-02-27T09:12:37.016Z,99651.94
2023-02-27T09:15:22.984Z,99648.13
2023-02-27T09:18:29.024Z,99657.00
2023-02-27T09:21:14.432Z,99661.16
2023-02-27T09:24:10.129Z,99670.50
2023-02-27T09:27:13.202Z,99662.56
2023-02-27T09:29:58.788Z,99674.97
2023-02-27T09:32:43.739Z,99679.41
2023-02-27T09:35:30.187Z,99681.78
2023-02-27T09:38:17.994Z,99685.63
2023-02-27T09:45:13.969Z,99687.97
2023-02-27T09:51:29.839Z,99673.38
2023-02-27T09:54:17.249Z,99677.06
2023-02-27T09:57:04.931Z,99685.31
2023-02-27T10:00:44.279Z,99690.38
2023-02-27T10:04:07.987Z,99673.53
2023-02-27T10:07:35.646Z,99665.91
2023-02-27T10:10:41.716Z,99671.00
2023-02-27T10:13:50.810Z,99685.31
2023-02-27T10:16:41.701Z,99678.94
2023-02-27T10:19:31.466Z,99671.28
2023-02-27T10:22:28.788Z,99674.00
2023-02-27T10:25:49.262Z,99688.44
2023-02-27T10:28:34.340Z,99697.66
2023-02-27T10:31:29.260Z,99689.41
2023-02-27T10:34:48.701Z,99687.44
2023-02-27T10:39:32.972Z,99677.13
2023-02-27T10:41:49.033Z,99685.72
2023-02-27T10:44:40.135Z,99676.31
2023-02-27T10:47:44.306Z,99672.00
2023-02-27T10:50:46.932Z,99685.50
2023-02-27T10:54:15.819Z,99681.63
2023-02-27T10:57:43.450Z,99700.72
2023-02-27T11:01:34.614Z,99700.44
2023-02-27T11:04:58.308Z,99673.19
2023-02-27T11:08:11.516Z,99697.50
2023-02-27T11:11:10.795Z,99709.31
2023-02-27T11:15:18.509Z,99688.63
2023-02-27T11:18:28.710Z,99712.97
2023-02-27T11:30:30.319Z,99701.25
2023-02-27T11:33:21.924Z,99708.69
2023-02-27T11:36:11.154Z,99717.75
2023-02-27T11:38:56.766Z,99723.31
2023-02-27T11:42:01.114Z,99726.34
2023-02-27T11:49:29.801Z,99706.28
2023-02-27T11:52:53.008Z,99738.75
2023-02-27T11:55:45.652Z,99736.97
2023-02-27T11:58:42.013Z,99711.94
2023-02-27T12:01:42.607Z,99750.84
2023-02-27T12:04:46.835Z,99739.78
2023-02-27T12:08:27.407Z,99748.31
2023-02-27T12:11:28.854Z,99756.56
2023-02-27T12:14:19.679Z,99750.63
2023-02-27T12:17:39.570Z,99757.13
2023-02-27T12:20:48.867Z,99750.16
2023-02-27T12:23:41.498Z,99750.22
2023-02-27T12:26:36.841Z,99757.03
2023-02-27T12:29:22.745Z,99755.78
2023-02-27T12:32:20.134Z,99745.47
2023-02-27T12:35:34.528Z,99762.03
2023-02-27T12:38:21.893Z,99754.28
2023-02-27T12:41:28.008Z,99762.03
2023-02-27T12:44:49.007Z,99771.94
2023-02-27T12:47:46.519Z,99767.50
2023-02-27T12:51:00.727Z,99771.50
2023-02-27T12:53:54.806Z,99769.75
2023-02-27T12:56:45.206Z,99768.09
2023-02-27T12:59:51.203Z,99778.56
2023-02-27T13:02:45.432Z,99772.06
2023-02-27T13:05:34.805Z,99774.53
2023-02-27T13:08:47.421Z,99779.97
2023-02-27T13:11:51.387Z,99783.31
2023-02-27T13:15:00.900Z,99779.03
2023-02-27T13:17:49.284Z,99789.94
2023-02-27T13:20:50.124Z,99780.88
2023-02-27T13:23:58.019Z,99787.41
2023-02-27T13:26:52.108Z,99789.00
2023-02-27T13:30:05.574Z,99782.63
2023-02-27T13:33:04.843Z,99786.13
2023-02-27T13:35:57.579Z,99784.34
2023-02-27T13:38:48.645Z,99783.53
2023-02-27T13:41:37.593Z,99783.75
2023-02-27T13:44:22.309Z,99781.75
2023-02-27T13:47:29.106Z,99782.47
2023-02-27T13:50:16.801Z,99786.72
2023-02-27T13:53:10.410Z,99786.56
2023-02-27T13:56:16.948Z,99785.81
2023-02-27T13:59:13.391Z,99790.44
2023-02-27T14:02:24.417Z,99784.28
2023-02-27T14:05:38.366Z,99785.44
2023-02-27T14:08:32.883Z,99786.75
2023-02-27T14:11:30.113Z,99786.09
2023-02-27T14:14:54.037Z,99786.03
2023-02-27T14:17:44.265Z,99787.84
2023-02-27T14:20:30.380Z,99796.97
2023-02-27T14:23:15.541Z,99801.16
2023-02-27T14:26:20.788Z,99804.66
2023-02-27T14:29:05.941Z,99799.28
2023-02-27T14:31:53.813Z,99810.09
2023-02-27T14:34:40.301Z,99808.63
2023-02-27T14:37:26.802Z,99815.44
2023-02-27T14:40:30.396Z,99820.13
2023-02-27T14:43:15.964Z,99822.66
2023-02-27T14:46:21.100Z,99820.69
2023-02-27T14:49:24.364Z,99831.09
2023-02-27T14:52:24.237Z,99836.31
2023-02-27T14:55:29.118Z,99829.38
2023-02-27T14:58:18.802Z,99831.53
2023-02-27T15:01:09.307Z,99826.38
2023-02-27T15:03:57.630Z,99826.28
2023-02-27T15:06:45.984Z,99832.59
2023-02-27T15:09:37.498Z,99829.38
2023-02-27T15:12:24.591Z,99835.25
2023-02-27T15:15:16.332Z,99841.53
2023-02-27T15:18:01.764Z,99846.06
2023-02-27T15:20:56.227Z,99849.03
2023-02-27T15:23:40.904Z,99850.75
2023-02-27T15:26:32.335Z,99860.34
2023-02-27T15:29:22.904Z,99865.41
2023-02-27T15:32:16.210Z,99860.13
2023-02-27T15:35:05.040Z,99866.25
2023-02-27T15:37:58.048Z,99870.34
2023-02-27T15:40:43.184Z,99876.63
2023-02-27T15:43:29.752Z,99883.56
2023-02-27T15:46:14.513Z,99883.19
2023-02-27T15:48:59.643Z,99879.31
2023-02-27T15:52:12.178Z,99896.09
2023-02-27T15:55:06.411Z,99903.16
2023-02-27T15:58:02.301Z,99908.38
2023-02-27T16:00:48.541Z,99917.03
2023-02-27T16:03:48.501Z,99928.22
2023-02-27T16:06:38.003Z,99931.00
2023-02-27T16:09:29.699Z,99938.97
2023-02-27T16:12:37.253Z,99941.00
2023-02-27T16:15:31.006Z,99950.31
2023-02-27T16:18:15.865Z,99950.44
2023-02-27T16:21:11.872Z,99951.78
2023-02-27T16:24:29.546Z,99965.22
2023-02-27T16:27:32.236Z,99969.84
2023-02-27T16:30:17.678Z,99976.13
2023-02-27T16:33:02.744Z,99974.41
2023-02-27T16:35:47.481Z,99990.22
2023-02-27T16:38:32.751Z,99997.16
2023-02-27T16:41:23.867Z,100006.59
2023-02-27T16:44:09.487Z,99998.72
2023-02-27T16:46:56.262Z,100014.31
2023-02-27T16:49:43.835Z,100013.75
2023-02-27T16:52:30.999Z,100022.28
2023-02-27T16:55:16.224Z,100018.94
2023-02-27T16:58:01.304Z,100018.94
2023-02-27T17:00:46.162Z,100035.72
2023-02-27T17:03:32.644Z,100028.41
2023-02-27T17:06:17.794Z,100031.03
2023-02-27T17:09:04.122Z,100043.69
2023-02-27T17:11:49.607Z,100045.28
2023-02-27T17:14:34.283Z,100038.78
2023-02-27T17:17:19.113Z,100045.44
2023-02-27T17:20:07.867Z,100056.47
2023-02-27T17:22:52.859Z,100056.31
2023-02-27T17:25:40.779Z,100057.94
2023-02-27T17:28:25.259Z,100052.72
2023-02-27T17:31:11.951Z,100057.53
2023-02-27T17:33:56.732Z,100052.06
2023-02-27T17:36:42.205Z,100063.00
2023-02-27T17:39:27.209Z,100062.31
2023-02-27T17:42:17.963Z,100065.50
2023-02-27T17:45:05.113Z,100070.72
2023-02-27T17:47:59.872Z,100070.16
2023-02-27T17:50:45.397Z,100070.00
2023-02-27T17:53:30.344Z,100079.84
2023-02-27T17:56:15.321Z,100075.53
2023-02-27T17:59:00.230Z,100069.41
2023-02-27T18:01:44.694Z,100080.56
2023-02-27T18:04:29.698Z,100077.72
2023-02-27T18:07:14.474Z,100077.31
2023-02-27T18:09:59.809Z,100084.88
2023-02-27T18:12:44.679Z,100087.78
2023-02-27T18:15:29.515Z,100086.41
2023-02-27T18:18:14.659Z,100089.34
2023-02-27T18:21:09.272Z,100099.69
2023-02-27T18:23:54.892Z,100101.78
2023-02-27T18:26:40.300Z,100103.88
2023-02-27T18:29:25.368Z,100105.84
2023-02-27T18:32:10.485Z,100101.06
2023-02-27T18:34:55.544Z,100101.16
2023-02-27T18:37:40.643Z,100108.63
2023-02-27T18:40:26.088Z,100105.63
2023-02-27T18:43:11.366Z,100114.72
2023-02-27T18:45:56.518Z,100109.22
2023-02-27T18:48:44.199Z,100115.88
2023-02-27T18:51:29.485Z,100112.97
2023-02-27T18:54:14.862Z,100112.19
2023-02-27T18:57:00.186Z,100121.50
2023-02-27T18:59:46.927Z,100124.69
2023-02-27T19:02:31.947Z,100121.91
2023-02-27T19:05:17.098Z,100127.78
2023-02-27T19:08:01.779Z,100134.97
2023-02-27T19:10:46.542Z,100141.59
2023-02-27T19:13:31.247Z,100134.03
2023-02-27T19:16:16.503Z,100141.50
2023-02-27T19:19:02.769Z,100142.16
2023-02-27T19:21:47.599Z,100144.59
2023-02-27T19:24:32.465Z,100145.25
2023-02-27T19:27:17.312Z,100145.13
2023-02-27T19:30:02.087Z,100152.31
2023-02-27T19:32:47.166Z,100151.66
2023-02-27T19:35:32.239Z,100147.41
2023-02-27T19:38:17.130Z,100152.59
2023-02-27T19:41:08.057Z,100148.31
2023-02-27T19:43:53.835Z,100149.13
2023-02-27T19:46:41.271Z,100149.13
2023-02-27T19:49:26.937Z,100149.81
2023-02-27T19:52:12.618Z,100159.78
2023-02-27T19:54:57.240Z,100149.56
2023-02-27T19:57:41.981Z,100150.38
2023-02-27T20:00:27.134Z,100144.66
2023-02-27T20:03:11.919Z,100147.84
2023-02-27T20:05:56.752Z,100150.75
2023-02-27T20:08:41.406Z,100147.53
2023-02-27T20:11:32.846Z,100153.28
2023-02-27T20:14:17.701Z,100151.13
2023-02-27T20:17:02.962Z,100152.59
2023-02-27T20:19:47.597Z,100156.94
2023-02-27T20:22:32.752Z,100161.91
2023-02-27T20:25:18.113Z,100160.41
2023-02-27T20:28:03.170Z,100163.84
2023-02-27T20:30:47.997Z,100173.16
2023-02-27T20:33:32.836Z,100172.38
2023-02-27T20:36:17.671Z,100172.03
2023-02-27T20:39:03.671Z,100178.00
2023-02-27T20:41:49.382Z,100179.31
2023-02-27T20:44:34.543Z,100183.78
2023-02-27T20:47:19.299Z,100197.69
2023-02-27T20:50:04.597Z,100190.34
2023-02-27T20:52:53.424Z,100186.59
2023-02-27T20:55:45.340Z,100191.44
2023-02-27T20:58:30.587Z,100193.66
2023-02-27T21:01:16.350Z,100196.63
2023-02-27T21:04:01.125Z,100194.84
2023-02-27T21:06:46.712Z,100203.00
2023-02-27T21:09:31.794Z,100204.59
2023-02-27T21:12:17.076Z,100200.84
2023-02-27T21:15:01.614Z,100210.56
2023-02-27T21:17:46.614Z,100203.47
2023-02-27T21:20:31.371Z,100207.16
2023-02-27T21:23:16.398Z,100218.25
2023-02-27T21:26:04.645Z,100213.09
2023-02-27T21:28:55.700Z,100211.03
2023-02-27T21:31:44.821Z,100223.28
2023-02-27T21:34:29.880Z,100220.41
2023-02-27T21:37:15.132Z,100215.03
2023-02-27T21:40:01.917Z,100221.75
2023-02-27T21:42:47.747Z,100224.63
2023-02-27T21:45:34.745Z,100219.94
2023-02-27T21:48:19.806Z,100219.56
2023-02-27T21:51:06.140Z,100220.03
2023-02-27T21:54:11.386Z,100227.59
2023-02-27T21:56:58.586Z,100220.94
2023-02-27T21:59:43.617Z,100224.13
2023-02-27T22:02:28.061Z,100219.34
2023-02-27T22:05:12.745Z,100228.72
2023-02-27T22:07:57.737Z,100233.75
2023-02-27T22:10:45.200Z,100239.00
2023-02-27T22:13:31.518Z,100241.75
2023-02-27T22:16:16.799Z,100239.25
2023-02-27T22:19:09.350Z,100243.81
2023-02-27T22:21:54.400Z,100236.47
2023-02-27T22:24:39.076Z,100242.06
2023-02-27T22:27:24.409Z,100245.50
2023-02-27T22:30:09.884Z,100238.84
2023-02-27T22:32:55.172Z,100241.28
2023-02-27T22:35:40.220Z,100248.94
2023-02-27T22:38:25.329Z,100245.59
2023-02-27T22:41:13.666Z,100246.31
2023-02-27T22:43:59.773Z,100237.97
2023-02-27T22:46:47.766Z,100234.63
2023-02-27T22:49:32.803Z,100241.38
2023-02-27T22:52:18.482Z,100241.59
2023-02-27T22:55:03.918Z,100252.00
2023-02-27T22:57:51.184Z,100239.75
2023-02-27T23:00:36.587Z,100238.13
2023-02-27T23:03:21.225Z,100243.06
2023-02-27T23:06:08.310Z,100240.56
2023-02-27T23:08:53.320Z,100238.50
2023-02-27T23:11:38.797Z,100230.03
2023-02-27T23:14:23.908Z,100243.22
2023-02-27T23:17:08.820Z,100238.06
2023-02-27T23:19:53.621Z,100235.66
2023-02-27T23:22:38.449Z,100236.25
2023-02-27T23:25:23.560Z,100237.97
2023-02-27T23:28:08.648Z,100243.00
2023-02-27T23:30:53.400Z,100240.69
2023-02-27T23:33:38.446Z,100250.63
2023-02-27T23:36:23.540Z,100245.72
2023-02-27T23:39:08.824Z,100243.31
2023-02-27T23:41:53.375Z,100241.59
2023-02-27T23:44:38.513Z,100240.09
2023-02-27T23:47:41.771Z,100245.94
2023-02-27T23:50:32.897Z,100250.28
2023-02-27T23:53:18.696Z,100254.41
2023-02-27T23:56:12.961Z,100259.91
2023-02-27T23:59:04.225Z,100259.91
